sensor_id;sensor_type;location;lat;lon;timestamp;P1;durP1;ratioP1;P2;durP2;ratioP2
17967;SDS011;9109;48.050;11.696;2022-11-21T00:00:00;1.97;;;0.80;;
17967;SDS011;9109;48.050;11.696;2022-11-21T04:48:36;3.67;;;0.83;;
17967;SDS011;9109;48.050;11.696;2022-11-21T04:51:37;5.27;;;1.30;;
17967;SDS011;9109;48.050;11.696;2022-11-21T04:54:39;7.67;;;1.00;;
17967;SDS011;9109;48.050;11.696;2022-11-21T04:57:41;1.87;;;0.83;;
17967;SDS011;9109;48.050;11.696;2022-11-21T05:00:43;15.90;;;1.00;;
17967;SDS011;9109;48.050;11.696;2022-11-21T05:03:46;4.23;;;0.90;;
17967;SDS011;9109;48.050;11.696;2022-11-21T05:06:48;4.87;;;1.00;;
17967;SDS011;9109;48.050;11.696;2022-11-21T05:09:50;6.20;;;0.90;;
17967;SDS011;9109;48.050;11.696;2022-11-21T05:12:56;2.43;;;1.07;;
17967;SDS011;9109;48.050;11.696;2022-11-21T05:16:15;6.50;;;0.90;;
17967;SDS011;9109;48.050;11.696;2022-11-21T05:19:18;4.23;;;0.63;;
17967;SDS011;9109;48.050;11.696;2022-11-21T05:22:20;1.87;;;0.63;;
17967;SDS011;9109;48.050;11.696;2022-11-21T05:25:22;3.20;;;0.70;;
17967;SDS011;9109;48.050;11.696;2022-11-21T05:28:24;5.43;;;1.27;;
17967;SDS011;9109;48.050;11.696;2022-11-21T05:31:26;1.73;;;0.70;;
17967;SDS011;9109;48.050;11.696;2022-11-21T05:34:39;0.93;;;0.70;;
17967;SDS011;9109;48.050;11.696;2022-11-21T05:37:41;5.40;;;0.80;;
17967;SDS011;9109;48.050;11.696;2022-11-21T05:40:43;2.13;;;0.90;;
17967;SDS011;9109;48.050;11.696;2022-11-21T05:43:45;5.77;;;0.80;;
17967;SDS011;9109;48.050;11.696;2022-11-21T05:46:48;4.00;;;0.80;;
17967;SDS011;9109;48.050;11.696;2022-11-21T05:50:04;6.73;;;0.80;;
17967;SDS011;9109;48.050;11.696;2022-11-21T05:53:07;3.10;;;1.03;;
17967;SDS011;9109;48.050;11.696;2022-11-21T05:56:09;1.40;;;0.70;;
17967;SDS011;9109;48.050;11.696;2022-11-21T05:59:26;2.30;;;0.80;;
17967;SDS011;9109;48.050;11.696;2022-11-21T06:02:28;2.03;;;0.60;;
17967;SDS011;9109;48.050;11.696;2022-11-21T06:06:01;0.83;;;0.70;;
17967;SDS011;9109;48.050;11.696;2022-11-21T06:09:16;5.93;;;1.33;;
17967;SDS011;9109;48.050;11.696;2022-11-21T06:12:22;2.93;;;0.80;;
17967;SDS011;9109;48.050;11.696;2022-11-21T06:15:53;0.73;;;0.50;;
17967;SDS011;9109;48.050;11.696;2022-11-21T06:19:22;3.20;;;0.87;;
17967;SDS011;9109;48.050;11.696;2022-11-21T06:22:27;5.37;;;0.80;;
17967;SDS011;9109;48.050;11.696;2022-11-21T06:25:44;5.80;;;1.80;;
17967;SDS011;9109;48.050;11.696;2022-11-21T06:28:46;2.50;;;0.97;;
17967;SDS011;9109;48.050;11.696;2022-11-21T06:32:03;2.73;;;1.00;;
17967;SDS011;9109;48.050;11.696;2022-11-21T06:35:08;4.00;;;0.90;;
17967;SDS011;9109;48.050;11.696;2022-11-21T06:38:11;2.13;;;0.80;;
17967;SDS011;9109;48.050;11.696;2022-11-21T06:41:24;3.80;;;1.00;;
17967;SDS011;9109;48.050;11.696;2022-11-21T06:44:32;5.73;;;1.10;;
17967;SDS011;9109;48.050;11.696;2022-11-21T06:47:36;1.47;;;0.90;;
17967;SDS011;9109;48.050;11.696;2022-11-21T06:50:38;1.03;;;0.73;;
17967;SDS011;9109;48.050;11.696;2022-11-21T06:54:00;2.43;;;0.83;;
17967;SDS011;9109;48.050;11.696;2022-11-21T06:57:11;1.50;;;0.80;;
17967;SDS011;9109;48.050;11.696;2022-11-21T07:00:15;4.17;;;0.80;;
17967;SDS011;9109;48.050;11.696;2022-11-21T07:03:24;2.33;;;0.90;;
17967;SDS011;9109;48.050;11.696;2022-11-21T07:06:40;3.10;;;0.57;;
17967;SDS011;9109;48.050;11.696;2022-11-21T07:09:45;0.50;;;0.50;;
17967;SDS011;9109;48.050;11.696;2022-11-21T07:12:47;1.03;;;0.67;;
17967;SDS011;9109;48.050;11.696;2022-11-21T07:16:07;0.60;;;0.50;;
17967;SDS011;9109;48.050;11.696;2022-11-21T07:19:13;3.23;;;0.50;;
17967;SDS011;9109;48.050;11.696;2022-11-21T07:22:22;0.70;;;0.60;;
17967;SDS011;9109;48.050;11.696;2022-11-21T07:26:00;1.13;;;0.67;;
17967;SDS011;9109;48.050;11.696;2022-11-21T07:29:17;2.23;;;0.60;;
17967;SDS011;9109;48.050;11.696;2022-11-21T07:36:43;3.93;;;0.50;;
17967;SDS011;9109;48.050;11.696;2022-11-21T07:39:58;1.87;;;0.60;;
17967;SDS011;9109;48.050;11.696;2022-11-21T07:43:23;0.63;;;0.53;;
17967;SDS011;9109;48.050;11.696;2022-11-21T07:46:40;0.70;;;0.70;;
17967;SDS011;9109;48.050;11.696;2022-11-21T07:50:19;1.57;;;0.50;;
17967;SDS011;9109;48.050;11.696;2022-11-21T07:53:57;1.43;;;0.70;;
17967;SDS011;9109;48.050;11.696;2022-11-21T07:57:45;0.50;;;0.50;;
17967;SDS011;9109;48.050;11.696;2022-11-21T08:01:23;4.90;;;0.50;;
17967;SDS011;9109;48.050;11.696;2022-11-21T08:04:47;6.03;;;0.87;;
17967;SDS011;9109;48.050;11.696;2022-11-21T08:08:19;3.60;;;0.60;;
17967;SDS011;9109;48.050;11.696;2022-11-21T08:11:21;7.23;;;0.60;;
17967;SDS011;9109;48.050;11.696;2022-11-21T08:14:23;1.07;;;0.97;;
17967;SDS011;9109;48.050;11.696;2022-11-21T08:17:26;0.60;;;0.60;;
17967;SDS011;9109;48.050;11.696;2022-11-21T08:20:28;0.53;;;0.53;;
17967;SDS011;9109;48.050;11.696;2022-11-21T08:23:30;2.50;;;0.80;;
17967;SDS011;9109;48.050;11.696;2022-11-21T08:26:33;2.10;;;0.77;;
17967;SDS011;9109;48.050;11.696;2022-11-21T08:29:34;2.57;;;0.90;;
17967;SDS011;9109;48.050;11.696;2022-11-21T08:32:38;1.97;;;0.60;;
17967;SDS011;9109;48.050;11.696;2022-11-21T08:35:40;0.80;;;0.60;;
17967;SDS011;9109;48.050;11.696;2022-11-21T08:38:42;3.50;;;0.70;;
17967;SDS011;9109;48.050;11.696;2022-11-21T08:41:43;0.80;;;0.70;;
17967;SDS011;9109;48.050;11.696;2022-11-21T08:45:03;0.53;;;0.53;;
17967;SDS011;9109;48.050;11.696;2022-11-21T08:48:14;2.70;;;0.60;;
17967;SDS011;9109;48.050;11.696;2022-11-21T08:51:16;0.77;;;0.70;;
17967;SDS011;9109;48.050;11.696;2022-11-21T08:54:18;7.60;;;1.00;;
17967;SDS011;9109;48.050;11.696;2022-11-21T08:57:21;5.10;;;1.03;;
17967;SDS011;9109;48.050;11.696;2022-11-21T09:00:23;3.13;;;0.80;;
17967;SDS011;9109;48.050;11.696;2022-11-21T09:03:27;3.53;;;0.80;;
17967;SDS011;9109;48.050;11.696;2022-11-21T09:06:29;1.80;;;0.77;;
17967;SDS011;9109;48.050;11.696;2022-11-21T09:09:31;6.87;;;1.00;;
17967;SDS011;9109;48.050;11.696;2022-11-21T09:12:42;9.73;;;0.70;;
17967;SDS011;9109;48.050;11.696;2022-11-21T09:15:44;2.63;;;0.60;;
17967;SDS011;9109;48.050;11.696;2022-11-21T09:19:04;0.87;;;0.70;;
17967;SDS011;9109;48.050;11.696;2022-11-21T09:22:06;4.87;;;0.80;;
17967;SDS011;9109;48.050;11.696;2022-11-21T09:25:08;2.80;;;0.70;;
17967;SDS011;9109;48.050;11.696;2022-11-21T09:28:11;3.50;;;0.73;;
17967;SDS011;9109;48.050;11.696;2022-11-21T09:31:14;2.73;;;0.73;;
17967;SDS011;9109;48.050;11.696;2022-11-21T09:34:17;3.93;;;0.93;;
17967;SDS011;9109;48.050;11.696;2022-11-21T09:37:19;0.70;;;0.60;;
17967;SDS011;9109;48.050;11.696;2022-11-21T09:40:21;1.00;;;0.60;;
17967;SDS011;9109;48.050;11.696;2022-11-21T09:43:26;1.50;;;0.70;;
17967;SDS011;9109;48.050;11.696;2022-11-21T09:46:39;1.87;;;0.70;;
17967;SDS011;9109;48.050;11.696;2022-11-21T09:49:50;1.30;;;0.73;;
17967;SDS011;9109;48.050;11.696;2022-11-21T09:52:57;3.73;;;0.90;;
17967;SDS011;9109;48.050;11.696;2022-11-21T09:56:03;1.57;;;0.70;;
17967;SDS011;9109;48.050;11.696;2022-11-21T09:59:13;5.43;;;0.90;;
17967;SDS011;9109;48.050;11.696;2022-11-21T10:02:29;4.57;;;1.13;;
17967;SDS011;9109;48.050;11.696;2022-11-21T10:05:35;3.30;;;0.90;;
17967;SDS011;9109;48.050;11.696;2022-11-21T10:08:44;9.87;;;0.90;;
17967;SDS011;9109;48.050;11.696;2022-11-21T10:11:56;1.47;;;0.90;;
17967;SDS011;9109;48.050;11.696;2022-11-21T10:15:25;5.80;;;0.70;;
17967;SDS011;9109;48.050;11.696;2022-11-21T10:18:47;1.73;;;0.80;;
17967;SDS011;9109;48.050;11.696;2022-11-21T10:25:39;6.77;;;1.03;;
17967;SDS011;9109;48.050;11.696;2022-11-21T10:28:50;5.30;;;1.10;;
17967;SDS011;9109;48.050;11.696;2022-11-21T10:31:56;5.97;;;0.90;;
17967;SDS011;9109;48.050;11.696;2022-11-21T10:35:04;1.10;;;0.70;;
17967;SDS011;9109;48.050;11.696;2022-11-21T10:38:18;5.93;;;1.13;;
17967;SDS011;9109;48.050;11.696;2022-11-21T10:41:22;2.00;;;0.83;;
17967;SDS011;9109;48.050;11.696;2022-11-21T10:44:34;2.63;;;1.07;;
17967;SDS011;9109;48.050;11.696;2022-11-21T10:47:53;3.67;;;0.90;;
17967;SDS011;9109;48.050;11.696;2022-11-21T10:51:01;1.47;;;0.80;;
17967;SDS011;9109;48.050;11.696;2022-11-21T10:54:15;1.47;;;0.90;;
17967;SDS011;9109;48.050;11.696;2022-11-21T10:57:36;3.73;;;1.10;;
17967;SDS011;9109;48.050;11.696;2022-11-21T11:00:55;7.63;;;0.90;;
17967;SDS011;9109;48.050;11.696;2022-11-21T11:04:10;2.77;;;1.00;;
17967;SDS011;9109;48.050;11.696;2022-11-21T11:07:22;2.40;;;0.97;;
17967;SDS011;9109;48.050;11.696;2022-11-21T11:10:27;2.50;;;1.00;;
17967;SDS011;9109;48.050;11.696;2022-11-21T11:13:30;2.43;;;0.63;;
17967;SDS011;9109;48.050;11.696;2022-11-21T11:16:36;3.80;;;0.90;;
17967;SDS011;9109;48.050;11.696;2022-11-21T11:19:58;3.50;;;1.10;;
17967;SDS011;9109;48.050;11.696;2022-11-21T11:23:16;4.70;;;1.60;;
17967;SDS011;9109;48.050;11.696;2022-11-21T11:26:28;3.90;;;0.90;;
17967;SDS011;9109;48.050;11.696;2022-11-21T11:29:32;1.13;;;0.80;;
17967;SDS011;9109;48.050;11.696;2022-11-21T11:32:49;3.83;;;0.97;;
17967;SDS011;9109;48.050;11.696;2022-11-21T11:35:51;1.23;;;0.80;;
17967;SDS011;9109;48.050;11.696;2022-11-21T11:38:54;1.93;;;0.83;;
17967;SDS011;9109;48.050;11.696;2022-11-21T11:42:16;3.53;;;1.20;;
17967;SDS011;9109;48.050;11.696;2022-11-21T11:45:54;2.17;;;1.10;;
17967;SDS011;9109;48.050;11.696;2022-11-21T11:49:34;3.27;;;1.13;;
17967;SDS011;9109;48.050;11.696;2022-11-21T11:52:58;3.70;;;0.93;;
17967;SDS011;9109;48.050;11.696;2022-11-21T11:56:06;4.50;;;1.20;;
17967;SDS011;9109;48.050;11.696;2022-11-21T11:59:15;1.73;;;0.83;;
17967;SDS011;9109;48.050;11.696;2022-11-21T12:02:23;2.97;;;0.93;;
17967;SDS011;9109;48.050;11.696;2022-11-21T12:05:29;2.03;;;0.90;;
17967;SDS011;9109;48.050;11.696;2022-11-21T12:08:37;4.00;;;1.40;;
17967;SDS011;9109;48.050;11.696;2022-11-21T12:11:49;4.63;;;1.13;;
17967;SDS011;9109;48.050;11.696;2022-11-21T12:15:10;3.47;;;1.30;;
17967;SDS011;9109;48.050;11.696;2022-11-21T12:18:35;2.43;;;1.10;;
17967;SDS011;9109;48.050;11.696;2022-11-21T12:21:46;2.30;;;1.10;;
17967;SDS011;9109;48.050;11.696;2022-11-21T12:24:48;3.70;;;1.30;;
17967;SDS011;9109;48.050;11.696;2022-11-21T12:27:51;9.40;;;1.83;;
17967;SDS011;9109;48.050;11.696;2022-11-21T12:31:00;5.00;;;1.20;;
17967;SDS011;9109;48.050;11.696;2022-11-21T12:34:11;1.57;;;0.90;;
17967;SDS011;9109;48.050;11.696;2022-11-21T12:37:27;4.00;;;1.17;;
17967;SDS011;9109;48.050;11.696;2022-11-21T12:40:39;8.17;;;1.23;;
17967;SDS011;9109;48.050;11.696;2022-11-21T12:43:51;4.83;;;0.73;;
17967;SDS011;9109;48.050;11.696;2022-11-21T12:47:04;6.03;;;1.00;;
17967;SDS011;9109;48.050;11.696;2022-11-21T12:50:18;3.90;;;1.10;;
17967;SDS011;9109;48.050;11.696;2022-11-21T12:53:43;3.33;;;0.90;;
17967;SDS011;9109;48.050;11.696;2022-11-21T12:57:07;3.80;;;1.07;;
17967;SDS011;9109;48.050;11.696;2022-11-21T13:00:12;4.13;;;1.50;;
17967;SDS011;9109;48.050;11.696;2022-11-21T13:03:28;3.63;;;0.90;;
17967;SDS011;9109;48.050;11.696;2022-11-21T13:06:40;1.37;;;1.00;;
17967;SDS011;9109;48.050;11.696;2022-11-21T13:09:45;3.50;;;0.90;;
17967;SDS011;9109;48.050;11.696;2022-11-21T13:12:52;6.13;;;1.80;;
17967;SDS011;9109;48.050;11.696;2022-11-21T13:16:02;2.57;;;0.93;;
17967;SDS011;9109;48.050;11.696;2022-11-21T13:19:15;6.57;;;1.00;;
17967;SDS011;9109;48.050;11.696;2022-11-21T13:25:48;2.80;;;0.80;;
17967;SDS011;9109;48.050;11.696;2022-11-21T13:28:50;1.90;;;0.80;;
17967;SDS011;9109;48.050;11.696;2022-11-21T13:42:29;1.87;;;0.90;;
17967;SDS011;9109;48.050;11.696;2022-11-21T13:45:49;2.57;;;0.90;;
17967;SDS011;9109;48.050;11.696;2022-11-21T13:48:56;1.80;;;0.90;;
17967;SDS011;9109;48.050;11.696;2022-11-21T13:52:07;3.57;;;0.63;;
17967;SDS011;9109;48.050;11.696;2022-11-21T13:55:27;1.33;;;0.80;;
17967;SDS011;9109;48.050;11.696;2022-11-21T13:58:48;5.17;;;0.80;;
17967;SDS011;9109;48.050;11.696;2022-11-21T14:02:12;4.50;;;1.00;;
17967;SDS011;9109;48.050;11.696;2022-11-21T14:05:35;5.47;;;1.20;;
17967;SDS011;9109;48.050;11.696;2022-11-21T14:09:16;4.10;;;0.90;;
17967;SDS011;9109;48.050;11.696;2022-11-21T14:12:27;2.27;;;1.00;;
17967;SDS011;9109;48.050;11.696;2022-11-21T14:15:33;6.23;;;0.97;;
17967;SDS011;9109;48.050;11.696;2022-11-21T14:18:43;2.07;;;0.97;;
17967;SDS011;9109;48.050;11.696;2022-11-21T14:21:46;3.17;;;0.80;;
17967;SDS011;9109;48.050;11.696;2022-11-21T14:24:51;2.17;;;0.80;;
17967;SDS011;9109;48.050;11.696;2022-11-21T14:27:53;2.83;;;0.70;;
17967;SDS011;9109;48.050;11.696;2022-11-21T14:30:57;5.87;;;1.07;;
17967;SDS011;9109;48.050;11.696;2022-11-21T14:33:59;7.60;;;1.30;;
17967;SDS011;9109;48.050;11.696;2022-11-21T14:37:02;2.43;;;1.00;;
17967;SDS011;9109;48.050;11.696;2022-11-21T14:40:10;4.03;;;0.80;;
17967;SDS011;9109;48.050;11.696;2022-11-21T14:43:27;3.17;;;1.00;;
17967;SDS011;9109;48.050;11.696;2022-11-21T14:46:32;4.37;;;0.93;;
17967;SDS011;9109;48.050;11.696;2022-11-21T14:49:35;1.10;;;0.67;;
17967;SDS011;9109;48.050;11.696;2022-11-21T14:52:37;9.53;;;1.40;;
17967;SDS011;9109;48.050;11.696;2022-11-21T14:55:40;2.17;;;0.80;;
17967;SDS011;9109;48.050;11.696;2022-11-21T14:58:42;1.20;;;0.67;;
17967;SDS011;9109;48.050;11.696;2022-11-21T15:01:53;1.70;;;0.87;;
17967;SDS011;9109;48.050;11.696;2022-11-21T15:04:59;5.23;;;1.10;;
17967;SDS011;9109;48.050;11.696;2022-11-21T15:08:02;2.27;;;0.80;;
17967;SDS011;9109;48.050;11.696;2022-11-21T15:11:06;3.53;;;0.90;;
17967;SDS011;9109;48.050;11.696;2022-11-21T15:14:10;1.30;;;0.77;;
17967;SDS011;9109;48.050;11.696;2022-11-21T15:17:20;4.13;;;1.80;;
17967;SDS011;9109;48.050;11.696;2022-11-21T15:20:23;2.43;;;0.83;;
17967;SDS011;9109;48.050;11.696;2022-11-21T15:23:26;4.00;;;1.20;;
17967;SDS011;9109;48.050;11.696;2022-11-21T15:26:31;6.57;;;1.70;;
17967;SDS011;9109;48.050;11.696;2022-11-21T15:29:34;4.27;;;1.80;;
17967;SDS011;9109;48.050;11.696;2022-11-21T15:36:10;5.30;;;2.50;;
17967;SDS011;9109;48.050;11.696;2022-11-21T15:39:14;8.37;;;2.80;;
17967;SDS011;9109;48.050;11.696;2022-11-21T15:42:36;4.03;;;2.07;;
17967;SDS011;9109;48.050;11.696;2022-11-21T15:45:38;4.33;;;2.13;;
17967;SDS011;9109;48.050;11.696;2022-11-21T15:48:42;3.67;;;1.87;;
17967;SDS011;9109;48.050;11.696;2022-11-21T15:51:46;5.13;;;2.00;;
17967;SDS011;9109;48.050;11.696;2022-11-21T15:54:49;7.03;;;2.77;;
17967;SDS011;9109;48.050;11.696;2022-11-21T15:57:52;9.13;;;2.87;;
17967;SDS011;9109;48.050;11.696;2022-11-21T16:00:54;5.37;;;2.60;;
17967;SDS011;9109;48.050;11.696;2022-11-21T16:03:57;9.60;;;2.43;;
17967;SDS011;9109;48.050;11.696;2022-11-21T16:07:00;5.73;;;1.90;;
17967;SDS011;9109;48.050;11.696;2022-11-21T16:10:02;6.40;;;1.97;;
17967;SDS011;9109;48.050;11.696;2022-11-21T16:13:05;7.07;;;3.03;;
17967;SDS011;9109;48.050;11.696;2022-11-21T16:16:09;8.73;;;3.10;;
17967;SDS011;9109;48.050;11.696;2022-11-21T16:19:12;11.53;;;3.70;;
17967;SDS011;9109;48.050;11.696;2022-11-21T16:22:14;6.37;;;2.60;;
17967;SDS011;9109;48.050;11.696;2022-11-21T16:25:16;5.00;;;2.50;;
17967;SDS011;9109;48.050;11.696;2022-11-21T16:28:20;4.63;;;2.53;;
17967;SDS011;9109;48.050;11.696;2022-11-21T16:31:22;9.37;;;2.90;;
17967;SDS011;9109;48.050;11.696;2022-11-21T16:34:25;10.23;;;3.60;;
17967;SDS011;9109;48.050;11.696;2022-11-21T16:37:29;12.87;;;3.07;;
17967;SDS011;9109;48.050;11.696;2022-11-21T16:40:31;7.70;;;3.23;;
17967;SDS011;9109;48.050;11.696;2022-11-21T16:43:35;6.53;;;3.13;;
17967;SDS011;9109;48.050;11.696;2022-11-21T16:46:36;5.70;;;2.83;;
17967;SDS011;9109;48.050;11.696;2022-11-21T16:49:42;13.67;;;3.80;;
17967;SDS011;9109;48.050;11.696;2022-11-21T16:52:48;11.00;;;3.93;;
17967;SDS011;9109;48.050;11.696;2022-11-21T16:55:58;10.63;;;3.83;;
17967;SDS011;9109;48.050;11.696;2022-11-21T16:59:01;10.87;;;3.20;;
17967;SDS011;9109;48.050;11.696;2022-11-21T17:02:03;5.83;;;2.70;;
17967;SDS011;9109;48.050;11.696;2022-11-21T17:05:06;4.73;;;2.00;;
17967;SDS011;9109;48.050;11.696;2022-11-21T17:08:08;7.13;;;2.13;;
17967;SDS011;9109;48.050;11.696;2022-11-21T17:11:10;7.80;;;2.00;;
17967;SDS011;9109;48.050;11.696;2022-11-21T17:14:15;5.20;;;2.40;;
17967;SDS011;9109;48.050;11.696;2022-11-21T17:17:17;8.53;;;2.70;;
17967;SDS011;9109;48.050;11.696;2022-11-21T17:20:19;10.33;;;3.20;;
17967;SDS011;9109;48.050;11.696;2022-11-21T17:23:21;7.40;;;2.90;;
17967;SDS011;9109;48.050;11.696;2022-11-21T17:26:23;4.63;;;2.27;;
17967;SDS011;9109;48.050;11.696;2022-11-21T17:29:28;6.80;;;2.80;;
17967;SDS011;9109;48.050;11.696;2022-11-21T17:32:36;5.50;;;2.20;;
17967;SDS011;9109;48.050;11.696;2022-11-21T17:35:38;6.27;;;2.30;;
17967;SDS011;9109;48.050;11.696;2022-11-21T17:38:40;4.90;;;2.63;;
17967;SDS011;9109;48.050;11.696;2022-11-21T17:41:43;5.97;;;2.67;;
17967;SDS011;9109;48.050;11.696;2022-11-21T17:44:46;5.43;;;2.47;;
17967;SDS011;9109;48.050;11.696;2022-11-21T17:47:48;5.37;;;2.67;;
17967;SDS011;9109;48.050;11.696;2022-11-21T17:50:56;5.80;;;2.97;;
17967;SDS011;9109;48.050;11.696;2022-11-21T17:53:59;5.73;;;2.27;;
17967;SDS011;9109;48.050;11.696;2022-11-21T17:57:01;5.47;;;2.40;;
17967;SDS011;9109;48.050;11.696;2022-11-21T18:00:06;5.00;;;2.30;;
17967;SDS011;9109;48.050;11.696;2022-11-21T18:03:08;4.23;;;2.40;;
17967;SDS011;9109;48.050;11.696;2022-11-21T18:06:14;5.93;;;2.57;;
17967;SDS011;9109;48.050;11.696;2022-11-21T18:09:17;10.33;;;2.30;;
17967;SDS011;9109;48.050;11.696;2022-11-21T18:12:19;7.00;;;2.43;;
17967;SDS011;9109;48.050;11.696;2022-11-21T18:15:23;11.87;;;3.23;;
17967;SDS011;9109;48.050;11.696;2022-11-21T18:18:25;9.43;;;2.93;;
17967;SDS011;9109;48.050;11.696;2022-11-21T18:21:27;22.03;;;3.43;;
17967;SDS011;9109;48.050;11.696;2022-11-21T18:24:33;6.80;;;3.13;;
17967;SDS011;9109;48.050;11.696;2022-11-21T18:27:38;8.83;;;3.00;;
17967;SDS011;9109;48.050;11.696;2022-11-21T18:30:41;6.40;;;2.93;;
17967;SDS011;9109;48.050;11.696;2022-11-21T18:33:43;9.80;;;3.40;;
17967;SDS011;9109;48.050;11.696;2022-11-21T18:36:51;10.43;;;3.83;;
17967;SDS011;9109;48.050;11.696;2022-11-21T18:39:53;10.67;;;4.80;;
17967;SDS011;9109;48.050;11.696;2022-11-21T18:42:56;13.43;;;5.83;;
17967;SDS011;9109;48.050;11.696;2022-11-21T18:46:03;12.77;;;5.50;;
17967;SDS011;9109;48.050;11.696;2022-11-21T18:49:07;31.50;;;8.43;;
17967;SDS011;9109;48.050;11.696;2022-11-21T18:52:12;22.83;;;7.07;;
17967;SDS011;9109;48.050;11.696;2022-11-21T18:55:29;16.57;;;6.30;;
17967;SDS011;9109;48.050;11.696;2022-11-21T18:58:31;13.87;;;5.17;;
17967;SDS011;9109;48.050;11.696;2022-11-21T19:01:41;14.03;;;3.67;;
17967;SDS011;9109;48.050;11.696;2022-11-21T19:04:43;7.37;;;3.77;;
17967;SDS011;9109;48.050;11.696;2022-11-21T19:07:44;7.03;;;3.50;;
17967;SDS011;9109;48.050;11.696;2022-11-21T19:10:46;6.10;;;3.50;;
17967;SDS011;9109;48.050;11.696;2022-11-21T19:13:48;6.97;;;3.97;;
17967;SDS011;9109;48.050;11.696;2022-11-21T19:16:52;5.67;;;3.60;;
17967;SDS011;9109;48.050;11.696;2022-11-21T19:19:54;6.50;;;3.00;;
17967;SDS011;9109;48.050;11.696;2022-11-21T19:22:56;4.63;;;2.57;;
17967;SDS011;9109;48.050;11.696;2022-11-21T19:25:58;5.90;;;3.10;;
17967;SDS011;9109;48.050;11.696;2022-11-21T19:29:01;6.50;;;2.70;;
17967;SDS011;9109;48.050;11.696;2022-11-21T19:32:04;5.23;;;2.93;;
17967;SDS011;9109;48.050;11.696;2022-11-21T19:35:07;6.33;;;2.83;;
17967;SDS011;9109;48.050;11.696;2022-11-21T19:38:09;5.80;;;2.67;;
17967;SDS011;9109;48.050;11.696;2022-11-21T19:41:12;6.90;;;2.90;;
17967;SDS011;9109;48.050;11.696;2022-11-21T19:44:16;6.10;;;3.03;;
17967;SDS011;9109;48.050;11.696;2022-11-21T19:47:20;8.30;;;3.30;;
17967;SDS011;9109;48.050;11.696;2022-11-21T19:50:22;6.13;;;2.97;;
17967;SDS011;9109;48.050;11.696;2022-11-21T19:53:26;5.27;;;3.37;;
17967;SDS011;9109;48.050;11.696;2022-11-21T19:56:29;9.83;;;3.90;;
17967;SDS011;9109;48.050;11.696;2022-11-21T19:59:30;10.17;;;3.87;;
17967;SDS011;9109;48.050;11.696;2022-11-21T20:02:34;11.27;;;3.50;;
17967;SDS011;9109;48.050;11.696;2022-11-21T20:05:36;4.90;;;2.60;;
17967;SDS011;9109;48.050;11.696;2022-11-21T20:08:38;7.27;;;2.90;;
17967;SDS011;9109;48.050;11.696;2022-11-21T20:11:41;4.87;;;2.60;;
17967;SDS011;9109;48.050;11.696;2022-11-21T20:14:44;5.43;;;2.43;;
17967;SDS011;9109;48.050;11.696;2022-11-21T20:17:48;3.67;;;2.07;;
17967;SDS011;9109;48.050;11.696;2022-11-21T20:20:50;4.30;;;2.10;;
17967;SDS011;9109;48.050;11.696;2022-11-21T20:23:52;4.27;;;2.10;;
17967;SDS011;9109;48.050;11.696;2022-11-21T20:26:54;4.53;;;2.00;;
17967;SDS011;9109;48.050;11.696;2022-11-21T20:29:58;4.70;;;2.07;;
17967;SDS011;9109;48.050;11.696;2022-11-21T20:33:01;1.97;;;1.53;;
17967;SDS011;9109;48.050;11.696;2022-11-21T20:36:04;5.73;;;2.00;;
17967;SDS011;9109;48.050;11.696;2022-11-21T20:39:08;3.00;;;1.90;;
17967;SDS011;9109;48.050;11.696;2022-11-21T20:42:14;6.43;;;2.30;;
17967;SDS011;9109;48.050;11.696;2022-11-21T20:45:16;4.77;;;2.23;;
17967;SDS011;9109;48.050;11.696;2022-11-21T20:48:19;5.37;;;2.60;;
17967;SDS011;9109;48.050;11.696;2022-11-21T20:51:22;3.83;;;2.30;;
17967;SDS011;9109;48.050;11.696;2022-11-21T20:54:24;4.57;;;2.43;;
17967;SDS011;9109;48.050;11.696;2022-11-21T20:57:29;4.73;;;2.23;;
17967;SDS011;9109;48.050;11.696;2022-11-21T21:00:34;6.37;;;2.70;;
17967;SDS011;9109;48.050;11.696;2022-11-21T21:03:52;6.60;;;3.23;;
17967;SDS011;9109;48.050;11.696;2022-11-21T21:07:13;5.13;;;2.60;;
17967;SDS011;9109;48.050;11.696;2022-11-21T21:10:19;4.87;;;2.63;;
17967;SDS011;9109;48.050;11.696;2022-11-21T21:13:45;5.27;;;2.80;;
17967;SDS011;9109;48.050;11.696;2022-11-21T21:17:03;5.50;;;2.50;;
17967;SDS011;9109;48.050;11.696;2022-11-21T21:20:08;5.47;;;2.63;;
17967;SDS011;9109;48.050;11.696;2022-11-21T21:23:10;9.43;;;3.10;;
17967;SDS011;9109;48.050;11.696;2022-11-21T21:26:18;7.83;;;3.43;;
17967;SDS011;9109;48.050;11.696;2022-11-21T21:29:26;11.67;;;4.83;;
17967;SDS011;9109;48.050;11.696;2022-11-21T21:39:12;7.77;;;2.73;;
17967;SDS011;9109;48.050;11.696;2022-11-21T21:42:14;6.33;;;2.40;;
17967;SDS011;9109;48.050;11.696;2022-11-21T21:45:16;6.47;;;3.03;;
17967;SDS011;9109;48.050;11.696;2022-11-21T21:48:18;6.80;;;3.20;;
17967;SDS011;9109;48.050;11.696;2022-11-21T21:51:20;24.50;;;10.00;;
17967;SDS011;9109;48.050;11.696;2022-11-21T21:54:25;17.80;;;7.70;;
17967;SDS011;9109;48.050;11.696;2022-11-21T21:57:27;10.10;;;4.87;;
17967;SDS011;9109;48.050;11.696;2022-11-21T22:00:29;7.10;;;3.43;;
17967;SDS011;9109;48.050;11.696;2022-11-21T22:03:31;6.87;;;3.17;;
17967;SDS011;9109;48.050;11.696;2022-11-21T22:06:34;6.73;;;2.90;;
17967;SDS011;9109;48.050;11.696;2022-11-21T22:09:38;15.90;;;4.50;;
17967;SDS011;9109;48.050;11.696;2022-11-21T22:12:40;6.40;;;2.70;;
17967;SDS011;9109;48.050;11.696;2022-11-21T22:15:42;4.80;;;2.30;;
17967;SDS011;9109;48.050;11.696;2022-11-21T22:18:46;4.70;;;2.30;;
17967;SDS011;9109;48.050;11.696;2022-11-21T22:21:53;6.17;;;2.50;;
17967;SDS011;9109;48.050;11.696;2022-11-21T22:24:57;7.53;;;3.00;;
17967;SDS011;9109;48.050;11.696;2022-11-21T22:27:59;5.07;;;2.47;;
17967;SDS011;9109;48.050;11.696;2022-11-21T22:31:01;4.27;;;2.20;;
17967;SDS011;9109;48.050;11.696;2022-11-21T22:34:03;5.97;;;2.20;;
17967;SDS011;9109;48.050;11.696;2022-11-21T22:37:07;4.83;;;2.33;;
17967;SDS011;9109;48.050;11.696;2022-11-21T22:40:11;3.90;;;2.23;;
17967;SDS011;9109;48.050;11.696;2022-11-21T22:43:16;3.13;;;1.90;;
17967;SDS011;9109;48.050;11.696;2022-11-21T22:46:18;4.13;;;2.07;;
17967;SDS011;9109;48.050;11.696;2022-11-21T22:49:20;4.63;;;2.30;;
17967;SDS011;9109;48.050;11.696;2022-11-21T22:52:22;4.47;;;2.37;;
17967;SDS011;9109;48.050;11.696;2022-11-21T22:55:26;3.87;;;2.10;;
17967;SDS011;9109;48.050;11.696;2022-11-21T22:58:28;4.43;;;2.37;;
17967;SDS011;9109;48.050;11.696;2022-11-21T23:01:31;4.03;;;2.50;;
17967;SDS011;9109;48.050;11.696;2022-11-21T23:04:34;4.73;;;2.10;;
17967;SDS011;9109;48.050;11.696;2022-11-21T23:07:36;3.33;;;2.33;;
17967;SDS011;9109;48.050;11.696;2022-11-21T23:10:39;3.63;;;2.10;;
17967;SDS011;9109;48.050;11.696;2022-11-21T23:13:42;3.63;;;2.13;;
17967;SDS011;9109;48.050;11.696;2022-11-21T23:16:45;4.77;;;2.40;;
17967;SDS011;9109;48.050;11.696;2022-11-21T23:19:47;4.50;;;2.40;;
17967;SDS011;9109;48.050;11.696;2022-11-21T23:22:49;3.83;;;1.80;;
17967;SDS011;9109;48.050;11.696;2022-11-21T23:25:52;2.63;;;1.90;;
17967;SDS011;9109;48.050;11.696;2022-11-21T23:28:54;5.77;;;2.80;;
17967;SDS011;9109;48.050;11.696;2022-11-21T23:31:57;5.43;;;2.40;;
17967;SDS011;9109;48.050;11.696;2022-11-21T23:34:59;6.27;;;2.63;;
17967;SDS011;9109;48.050;11.696;2022-11-21T23:38:01;13.43;;;2.80;;
17967;SDS011;9109;48.050;11.696;2022-11-21T23:41:04;4.50;;;2.70;;
17967;SDS011;9109;48.050;11.696;2022-11-21T23:44:06;4.77;;;2.47;;
17967;SDS011;9109;48.050;11.696;2022-11-21T23:47:08;4.10;;;2.47;;
17967;SDS011;9109;48.050;11.696;2022-11-21T23:50:10;3.93;;;2.53;;
17967;SDS011;9109;48.050;11.696;2022-11-21T23:53:12;4.73;;;2.60;;
17967;SDS011;9109;48.050;11.696;2022-11-21T23:56:15;5.60;;;3.07;;
17967;SDS011;9109;48.050;11.696;2022-11-21T23:59:17;4.53;;;2.90;;
